Terminal Aerodrome Forecast
Issued by NWS

Home | Current Version | Previous Version | Text Only | Print | Product List | Glossary On
Versions: 1 2 3 4 5 6 7 8 9 10 11 12 13 14 15 16 17 18 19 20
000
FTUS41 KGYX 212320
TAFPSM
TAF
KPSM 212320Z 2200/2224 35009KT P6SM OVC004
     FM220100 01008KT 4SM -RA BR OVC004
      TEMPO 2201/2205 2SM RA BR SCT004 OVC008
     FM220900 01015G25KT 4SM -RA BR OVC005=

USA.gov is the U.S. government's official web portal to all federal, state and local government web resources and services.